Airport View

Enter AWOS ICAO identifier for current METAR.

ex. KFNL

KACK 191831Z 15010KT 10SM SCT011 19/17 A2988 RMK AO2 T01940172 $

19 Jun 2019 18:46

Phone: 508-325-6082

Other Area AWOS: KCQX - KMVY - KHYA - KFMH

TAF KACK 191739Z 1918/2018 09004KT P6SM BKN012 FM192200 12007KT 4SM BR OVC008 FM192300 11008KT 1SM BR VCSH OVC008 FM200000 12009KT 3/4SM BR VCSH OVC003 FM200100 13010KT 1/2SM FG VCSH OVC003 FM201400 14006KT 1 1/2SM BR VCSH OVC003 FM201700 17007KT 4SM BR VCSH OVC003